Time;durP1;ratioP1;P1;durP2;ratioP2;P2;SDS_P1;SDS_P2;PMS_P1;PMS_P2;Temp;Humidity;BMP_temperature;BMP_pressure;BME280_temperature;BME280_humidity;BME280_pressure;Samples;Min_cycle;Max_cycle;Signal;HPM_P1;HPM_P2
2021/12/08 00:02:37;;;;;;;21.33;13.47;;;;;;;-1.41;85.38;97144.63;6353732;27;20277;-68
2021/12/08 00:05:42;;;;;;;25.43;15.80;;;;;;;-1.50;85.38;97138.06;6327738;28;20221;-70
2021/12/08 00:09:01;;;;;;;24.30;14.67;;;;;;;-1.60;85.24;97143.72;6366939;27;20192;-69
2021/12/08 00:15:24;;;;;;;23.70;15.00;;;;;;;-1.78;85.51;97129.75;6371081;27;20189;-68
2021/12/08 00:18:29;;;;;;;26.47;15.20;;;;;;;-1.87;85.62;97125.78;6353427;27;20185;-69
2021/12/08 00:21:32;;;;;;;25.13;14.90;;;;;;;-1.91;85.58;97126.84;6351409;27;20246;-68
2021/12/08 00:24:34;;;;;;;24.37;15.43;;;;;;;-1.98;85.40;97124.53;6370963;27;20560;-69
2021/12/08 00:27:36;;;;;;;25.77;15.37;;;;;;;-2.05;85.75;97121.34;6352779;27;20718;-69
2021/12/08 00:30:42;;;;;;;27.03;15.33;;;;;;;-2.09;85.42;97127.53;6370878;27;20208;-68
2021/12/08 00:33:46;;;;;;;25.47;14.13;;;;;;;-2.13;85.78;97114.81;6352317;27;20203;-68
2021/12/08 00:36:51;;;;;;;29.30;16.80;;;;;;;-2.20;85.90;97118.53;6352442;27;20592;-69
2021/12/08 00:39:53;;;;;;;29.13;17.47;;;;;;;-2.24;85.86;97115.22;6351433;27;20187;-68
2021/12/08 00:42:56;;;;;;;27.97;16.97;;;;;;;-2.28;86.22;97109.31;6352323;27;20180;-69
2021/12/08 00:45:58;;;;;;;27.40;16.37;;;;;;;-2.34;85.88;97109.56;6351668;27;20205;-68
2021/12/08 00:49:01;;;;;;;29.97;16.87;;;;;;;-2.37;86.42;97107.09;6352313;27;20203;-68
2021/12/08 00:52:03;;;;;;;30.53;17.07;;;;;;;-2.44;86.84;97097.91;6369613;27;20660;-69
2021/12/08 00:55:07;;;;;;;28.53;16.47;;;;;;;-2.49;86.55;97097.22;6352154;27;20668;-68
2021/12/08 00:58:09;;;;;;;24.87;14.77;;;;;;;-2.53;86.94;97095.69;6351945;27;20229;-68
2021/12/08 01:01:12;;;;;;;29.37;15.73;;;;;;;-2.54;86.92;97093.16;6351739;27;20656;-68
2021/12/08 01:04:15;;;;;;;25.23;15.50;;;;;;;-2.60;86.58;97078.72;6351957;27;20220;-69
2021/12/08 01:07:17;;;;;;;25.87;15.20;;;;;;;-2.65;86.85;97083.22;6373538;27;20698;-68
2021/12/08 01:10:25;;;;;;;28.93;15.83;;;;;;;-2.71;87.01;97086.88;6375944;27;20216;-68
2021/12/08 01:13:36;;;;;;;25.83;15.83;;;;;;;-2.77;86.54;97076.75;6369531;27;20256;-68
2021/12/08 01:16:39;;;;;;;24.60;15.27;;;;;;;-2.81;87.37;97075.22;6369864;27;20203;-68
2021/12/08 01:19:41;;;;;;;28.07;15.30;;;;;;;-2.84;86.84;97070.16;6351016;27;20192;-68
2021/12/08 01:22:44;;;;;;;28.17;15.13;;;;;;;-2.88;86.87;97063.41;6351482;27;20699;-67
2021/12/08 01:25:46;;;;;;;27.63;14.10;;;;;;;-2.91;87.03;97060.13;6369459;27;20204;-68
2021/12/08 01:28:51;;;;;;;29.80;17.27;;;;;;;-2.95;87.02;97056.78;6369408;27;20667;-68
2021/12/08 01:31:53;;;;;;;26.80;15.27;;;;;;;-3.01;87.16;97052.72;6351195;27;20188;-68
2021/12/08 01:34:55;;;;;;;25.73;16.17;;;;;;;-3.06;87.60;97049.44;6334123;27;20200;-69
2021/12/08 01:37:57;;;;;;;30.17;16.27;;;;;;;-3.10;87.48;97047.06;6360296;27;20191;-69
2021/12/08 01:41:00;;;;;;;29.50;15.47;;;;;;;-3.16;87.09;97037.78;6377430;27;20486;-68
2021/12/08 01:47:27;;;;;;;24.60;15.70;;;;;;;-3.14;86.93;97024.81;6368941;27;20216;-68
2021/12/08 01:50:29;;;;;;;25.53;14.40;;;;;;;-3.16;87.45;97018.88;6369223;27;20273;-69
2021/12/08 01:53:32;;;;;;;27.90;14.83;;;;;;;-3.16;87.50;97011.13;6369309;27;20177;-69
2021/12/08 01:56:35;;;;;;;29.60;16.40;;;;;;;-3.12;87.06;97002.41;6368993;27;20196;-68
2021/12/08 01:59:37;;;;;;;31.67;15.67;;;;;;;-3.11;87.55;96996.34;6350430;27;20202;-68
2021/12/08 02:02:39;;;;;;;29.23;15.70;;;;;;;-3.14;88.04;96992.13;6350977;28;20199;-68
2021/12/08 02:05:41;;;;;;;28.43;16.47;;;;;;;-3.11;87.52;96989.44;6350046;28;20221;-68
2021/12/08 02:08:45;;;;;;;28.27;16.60;;;;;;;-3.03;87.14;96989.16;6385928;27;20188;-68
2021/12/08 02:11:52;;;;;;;34.27;19.57;;;;;;;-2.93;88.07;96984.47;6359840;28;20751;-69
2021/12/08 02:14:54;;;;;;;30.03;16.83;;;;;;;-2.85;87.56;96990.19;6368544;28;20220;-68
2021/12/08 02:17:57;;;;;;;30.77;16.43;;;;;;;-2.80;87.77;96986.53;6350396;28;20185;-68
2021/12/08 02:21:01;;;;;;;32.53;16.83;;;;;;;-2.77;87.03;96982.97;6350121;28;20205;-68
2021/12/08 02:24:07;;;;;;;30.90;17.07;;;;;;;-2.79;87.80;96975.28;6369266;28;20193;-68
2021/12/08 02:27:10;;;;;;;32.73;18.07;;;;;;;-2.80;87.43;96965.03;6349960;28;20714;-71
2021/12/08 02:30:25;;;;;;;29.77;18.27;;;;;;;-2.80;87.67;96968.47;6368853;28;20655;-69
2021/12/08 02:47:31;;;;;;;36.60;18.80;;;;;;;-2.48;87.45;96961.16;6317021;27;20220;-69
2021/12/08 02:50:36;;;;;;;31.47;17.33;;;;;;;-2.45;87.49;96941.22;6354942;27;20197;-68
2021/12/08 02:53:39;;;;;;;30.10;17.20;;;;;;;-2.39;87.46;96940.13;6354980;27;20600;-68
2021/12/08 02:56:41;;;;;;;35.30;19.47;;;;;;;-2.33;87.15;96932.13;6354832;27;20285;-68
2021/12/08 02:59:45;;;;;;;36.63;19.63;;;;;;;-2.27;87.57;96932.72;6354835;27;20709;-68
2021/12/08 03:02:47;;;;;;;37.37;20.80;;;;;;;-2.24;87.59;96937.75;6373071;27;20651;-68
2021/12/08 03:05:50;;;;;;;38.67;21.43;;;;;;;-2.15;87.46;96933.09;6354537;27;20203;-68
2021/12/08 03:08:52;;;;;;;32.43;20.20;;;;;;;-2.11;87.47;96935.50;6386540;27;20211;-68
2021/12/08 03:11:57;;;;;;;35.13;19.87;;;;;;;-2.04;87.40;96938.66;6354009;27;20700;-69
2021/12/08 03:14:59;;;;;;;34.77;20.00;;;;;;;-2.00;87.23;96935.06;6337884;27;20778;-68
2021/12/08 03:18:01;;;;;;;36.27;20.43;;;;;;;-1.97;nan;96932.31;6354211;27;20293;-71
2021/12/08 03:21:07;;;;;;;34.77;21.00;;;;;;;-1.94;87.21;96924.44;6372550;27;20189;-69
2021/12/08 03:27:20;;;;;;;35.63;21.13;;;;;;;-1.89;87.49;96922.47;6371987;27;20205;-68
2021/12/08 03:30:32;;;;;;;40.47;22.23;;;;;;;-1.87;87.47;96915.50;6354395;27;20556;-68
2021/12/08 03:33:34;;;;;;;39.00;23.47;;;;;;;-1.86;87.33;96915.44;6371923;27;20223;-68
2021/12/08 03:36:38;;;;;;;38.33;22.20;;;;;;;-1.84;86.96;96910.22;6372128;27;20176;-68
2021/12/08 03:39:42;;;;;;;38.87;22.00;;;;;;;-1.82;86.90;96892.88;6393732;27;20208;-69
2021/12/08 03:42:46;;;;;;;32.80;19.33;;;;;;;-1.81;86.91;96901.50;6354098;27;20189;-68
2021/12/08 03:45:51;;;;;;;34.97;19.37;;;;;;;-1.79;87.16;96897.91;6353887;27;20245;-68
2021/12/08 03:48:54;;;;;;;36.57;21.00;;;;;;;-1.77;86.96;96905.59;6371674;27;20690;-68
2021/12/08 03:52:00;;;;;;;38.13;21.43;;;;;;;-1.75;86.79;96904.63;6371687;27;20193;-68
2021/12/08 03:55:07;;;;;;;39.23;20.80;;;;;;;-1.73;86.72;96892.47;6372111;27;20241;-68
2021/12/08 03:58:10;;;;;;;33.03;19.67;;;;;;;-1.72;86.63;96894.16;6353292;27;20192;-68
2021/12/08 04:01:12;;;;;;;33.47;19.10;;;;;;;-1.71;86.35;96898.44;6371271;27;20185;-68
2021/12/08 04:04:14;;;;;;;35.03;19.80;;;;;;;-1.70;86.56;96883.75;6353086;27;20188;-70
2021/12/08 04:07:18;;;;;;;37.13;20.40;;;;;;;-1.70;86.27;96882.00;6354501;27;20223;-68
2021/12/08 04:10:21;;;;;;;39.77;21.67;;;;;;;-1.72;86.24;96873.47;6353397;27;20209;-68
2021/12/08 04:13:30;;;;;;;39.63;21.03;;;;;;;-1.71;85.88;96876.91;6343986;28;20305;-69
2021/12/08 04:16:37;;;;;;;41.93;22.97;;;;;;;-1.77;85.33;96865.06;6344523;28;20252;-69
2021/12/08 04:19:41;;;;;;;44.13;23.73;;;;;;;-1.76;85.07;96863.31;6345610;28;20717;-68
2021/12/08 04:22:46;;;;;;;47.33;24.33;;;;;;;-1.84;84.43;96853.31;6345395;28;20185;-68
2021/12/08 04:25:54;;;;;;;48.40;24.80;;;;;;;-1.88;84.58;96854.34;6344144;28;20230;-68
2021/12/08 04:28:56;;;;;;;43.87;23.50;;;;;;;-1.90;84.72;96853.63;6344264;28;20190;-69
2021/12/08 04:31:59;;;;;;;45.60;24.03;;;;;;;-1.91;84.95;96852.78;6345113;28;20193;-68
2021/12/08 04:35:04;;;;;;;42.37;23.30;;;;;;;-1.94;84.68;96855.47;6345467;28;20362;-72
2021/12/08 04:38:11;;;;;;;52.10;24.83;;;;;;;-1.96;84.61;96848.69;6344961;28;20204;-69
2021/12/08 04:41:19;;;;;;;47.80;24.97;;;;;;;-1.98;84.68;96850.50;6345291;28;20182;-68
2021/12/08 04:44:41;;;;;;;51.40;25.27;;;;;;;-2.00;84.52;96853.19;6321930;28;20194;-68
2021/12/08 04:48:50;;;;;;;47.13;24.33;;;;;;;-2.01;84.92;96851.50;6317959;28;20202;-69
2021/12/08 04:51:36;;;;;;;47.30;23.07;;;;;;;-1.98;84.79;96851.34;6309925;28;20616;-68
2021/12/08 05:05:20;;;;;;;53.27;25.77;;;;;;;-2.14;84.74;96813.31;6291156;28;20199;-68
2021/12/08 05:08:24;;;;;;;53.47;26.23;;;;;;;-2.21;85.50;96815.34;6303392;28;20434;-69
2021/12/08 05:11:31;;;;;;;55.10;26.27;;;;;;;-2.21;85.71;96809.34;6295689;28;20600;-68
2021/12/08 05:14:42;;;;;;;47.17;24.27;;;;;;;-2.20;85.43;96817.03;6290869;28;20353;-67
2021/12/08 05:17:58;;;;;;;46.13;24.23;;;;;;;-2.20;85.67;96805.84;6290460;28;20186;-68
2021/12/08 05:21:09;;;;;;;46.53;23.73;;;;;;;-2.18;85.76;96804.84;6274017;28;20199;-71
2021/12/08 05:24:19;;;;;;;43.27;22.97;;;;;;;-2.18;85.67;96801.44;6290771;28;20206;-67
2021/12/08 05:27:26;;;;;;;47.00;24.87;;;;;;;-2.17;85.95;96795.34;6290514;28;20705;-69
2021/12/08 05:30:39;;;;;;;46.70;25.53;;;;;;;-2.15;86.01;96796.97;6290607;28;20219;-67
2021/12/08 05:33:43;;;;;;;42.67;24.97;;;;;;;-2.17;85.54;96785.00;6273494;28;20203;-67
2021/12/08 05:36:45;;;;;;;48.60;24.63;;;;;;;-2.17;86.33;96782.44;6337768;28;20246;-69
2021/12/08 05:39:48;;;;;;;41.83;22.57;;;;;;;-2.18;86.08;96788.50;6366569;27;20196;-68
2021/12/08 05:42:59;;;;;;;38.17;21.07;;;;;;;-2.18;86.23;96784.19;6318756;28;20170;-69
2021/12/08 05:46:03;;;;;;;39.27;22.87;;;;;;;-2.16;85.99;96779.78;6338950;28;20571;-67
2021/12/08 05:49:05;;;;;;;43.97;23.27;;;;;;;-2.18;86.06;96778.16;6342376;28;20214;-69
2021/12/08 05:52:08;;;;;;;38.87;22.07;;;;;;;-2.20;86.04;96777.41;6343801;28;20189;-68
2021/12/08 05:55:11;;;;;;;39.13;21.47;;;;;;;-2.22;86.20;96769.72;6342366;28;20208;-68
2021/12/08 05:58:15;;;;;;;39.57;21.37;;;;;;;-2.22;86.20;96761.13;6343431;28;20277;-68
2021/12/08 06:01:26;;;;;;;37.87;20.83;;;;;;;-2.26;85.96;96766.44;6343344;28;20189;-69
2021/12/08 06:04:30;;;;;;;41.37;23.10;;;;;;;-2.28;85.99;96760.50;6342407;28;20191;-68
2021/12/08 06:07:33;;;;;;;43.40;22.27;;;;;;;-2.32;86.53;96758.97;6349452;28;20204;-68
2021/12/08 06:10:37;;;;;;;32.00;19.60;;;;;;;-2.30;86.35;96758.91;6343212;27;20224;-68
2021/12/08 06:13:42;;;;;;;37.00;22.30;;;;;;;-2.31;85.97;96752.91;6341773;28;20314;-68
2021/12/08 06:16:46;;;;;;;37.07;20.20;;;;;;;-2.34;85.88;96752.19;6343278;28;20185;-67
2021/12/08 06:19:49;;;;;;;39.10;21.27;;;;;;;-2.34;86.30;96749.59;6344429;28;20193;-67
2021/12/08 06:22:53;;;;;;;43.57;22.00;;;;;;;-2.37;86.14;96742.81;6348622;28;20197;-68
2021/12/08 06:25:55;;;;;;;39.50;21.33;;;;;;;-2.39;86.04;96746.34;6348303;27;20205;-68
2021/12/08 06:28:58;;;;;;;35.17;20.07;;;;;;;-2.40;86.42;96745.56;6347079;28;20212;-69
2021/12/08 06:32:03;;;;;;;36.27;19.07;;;;;;;-2.41;86.19;96745.63;6347912;28;20199;-68
2021/12/08 06:35:10;;;;;;;34.67;19.30;;;;;;;-2.40;86.46;96744.72;6348349;28;20641;-68
2021/12/08 06:38:14;;;;;;;32.67;19.03;;;;;;;-2.38;86.32;96742.88;6348187;28;20208;-69
2021/12/08 06:41:31;;;;;;;33.37;19.40;;;;;;;-2.41;86.59;96732.69;6345967;28;20196;-70
2021/12/08 06:44:40;;;;;;;36.17;20.27;;;;;;;-2.45;86.52;96732.00;6327249;28;20271;-69
2021/12/08 06:47:43;;;;;;;38.77;21.83;;;;;;;-2.46;86.43;96732.88;6322172;28;20209;-68
2021/12/08 06:50:59;;;;;;;29.70;18.47;;;;;;;-2.48;86.45;96729.53;6320952;28;20799;-69
2021/12/08 06:54:10;;;;;;;33.13;19.90;;;;;;;-2.45;86.29;96720.81;6321936;28;20195;-68
2021/12/08 06:57:21;;;;;;;34.90;19.97;;;;;;;-2.44;86.03;96725.06;6322131;28;20190;-68
2021/12/08 07:00:36;;;;;;;31.07;17.77;;;;;;;-2.46;86.54;96732.88;6321298;28;20190;-72
2021/12/08 07:04:11;;;;;;;29.57;17.60;;;;;;;-2.44;86.20;96730.25;6321849;28;20271;-68
2021/12/08 07:07:17;;;;;;;30.30;17.93;;;;;;;-2.40;85.63;96737.81;6325477;28;20234;-68
2021/12/08 07:10:28;;;;;;;27.73;16.47;;;;;;;-2.40;85.87;96724.06;6346879;28;20296;-68
2021/12/08 07:13:33;;;;;;;29.10;18.20;;;;;;;-2.44;85.88;96719.91;6360334;28;20217;-71
2021/12/08 07:16:57;;;;;;;27.57;16.90;;;;;;;-2.50;86.06;96726.19;6352354;28;20659;-69
2021/12/08 07:20:14;;;;;;;31.67;17.67;;;;;;;-2.55;85.84;96720.38;6351792;28;20208;-68
2021/12/08 07:23:22;;;;;;;26.03;15.70;;;;;;;-2.60;85.33;96722.34;6370892;28;20246;-68
2021/12/08 07:26:28;;;;;;;25.17;16.83;;;;;;;-2.63;85.69;96714.72;6352761;28;20196;-68
2021/12/08 07:29:35;;;;;;;25.53;15.20;;;;;;;-2.66;85.77;96717.44;6351591;27;20285;-68
2021/12/08 07:32:40;;;;;;;26.83;16.17;;;;;;;-2.67;85.79;96721.75;6370205;28;20189;-68
2021/12/08 07:35:50;;;;;;;25.53;15.43;;;;;;;-2.72;85.92;96707.38;6370675;28;20201;-69
2021/12/08 07:38:55;;;;;;;25.50;16.27;;;;;;;-2.76;85.29;96700.66;6356066;28;20200;-70
2021/12/08 07:42:10;;;;;;;26.97;16.43;;;;;;;-2.76;85.70;96705.81;6369980;28;20697;-67
2021/12/08 07:45:21;;;;;;;25.43;14.47;;;;;;;-2.78;86.12;96699.88;6352416;28;20193;-68
2021/12/08 07:48:29;;;;;;;20.67;13.23;;;;;;;-2.74;85.83;96693.69;6351935;28;20778;-69
2021/12/08 07:51:35;;;;;;;23.00;13.57;;;;;;;-2.70;85.71;96692.66;6351367;28;20262;-68
2021/12/08 07:54:39;;;;;;;22.33;14.27;;;;;;;-2.70;85.35;96698.66;6351698;28;20193;-69
2021/12/08 07:57:42;;;;;;;25.57;13.87;;;;;;;-2.70;85.69;96690.09;6370700;28;20184;-68
2021/12/08 08:00:47;;;;;;;22.47;13.90;;;;;;;-2.69;85.68;96682.25;6369488;28;20269;-69
2021/12/08 08:03:52;;;;;;;22.50;13.00;;;;;;;-2.67;85.14;96695.09;6370163;28;20188;-68
2021/12/08 08:06:57;;;;;;;23.77;12.87;;;;;;;-2.69;85.29;96682.25;6370567;27;20220;-68
2021/12/08 08:10:01;;;;;;;19.10;12.37;;;;;;;-2.69;85.45;96676.25;6381228;27;20299;-69
2021/12/08 08:13:07;;;;;;;21.37;13.80;;;;;;;-2.70;85.54;96675.44;6326209;27;1228436;-71
2021/12/08 08:16:16;;;;;;;21.60;13.60;;;;;;;-2.66;85.13;96673.53;6371043;27;20233;-69
2021/12/08 08:19:25;;;;;;;19.03;12.53;;;;;;;-2.64;85.07;96667.41;6352669;27;20186;-69
2021/12/08 08:22:30;;;;;;;22.43;13.57;;;;;;;-2.63;85.12;96665.66;6370417;27;20184;-68
2021/12/08 08:25:37;;;;;;;20.50;13.87;;;;;;;-2.60;85.12;96665.53;6352858;27;20196;-67
2021/12/08 08:28:42;;;;;;;25.87;16.33;;;;;;;-2.57;85.04;96660.19;6370609;27;20204;-67
2021/12/08 08:31:55;;;;;;;26.37;16.30;;;;;;;-2.55;84.93;96660.97;6352308;27;20200;-70
2021/12/08 08:35:30;;;;;;;26.63;17.67;;;;;;;-2.49;85.46;96649.53;6370844;27;20197;-68
2021/12/08 08:38:44;;;;;;;28.97;17.40;;;;;;;-2.45;84.85;96646.75;6365919;27;20686;-68
2021/12/08 08:41:59;;;;;;;29.73;17.97;;;;;;;-2.35;85.24;96637.66;6355908;27;20210;-67
2021/12/08 08:45:33;;;;;;;28.00;17.53;;;;;;;-2.25;84.70;96644.09;6353000;27;20267;-68
2021/12/08 08:48:47;;;;;;;26.53;17.27;;;;;;;-2.13;84.80;96629.75;6370237;27;20208;-68
2021/12/08 08:52:00;;;;;;;25.67;16.67;;;;;;;-2.00;84.57;96637.78;6369422;27;20196;-68
2021/12/08 08:55:10;;;;;;;24.43;15.60;;;;;;;-1.82;84.15;96638.66;6369993;27;20214;-68
2021/12/08 08:58:13;;;;;;;24.80;15.87;;;;;;;-1.72;83.66;96616.59;6369993;27;20213;-68
2021/12/08 09:01:20;;;;;;;23.77;15.97;;;;;;;-1.59;83.34;96620.25;6369678;27;20272;-69
2021/12/08 09:04:30;;;;;;;22.43;14.90;;;;;;;-1.47;82.72;96614.47;6370112;27;20189;-67
2021/12/08 09:07:38;;;;;;;20.87;15.27;;;;;;;-1.30;82.39;96622.25;6369750;27;20211;-68
2021/12/08 09:10:52;;;;;;;19.27;12.83;;;;;;;-1.09;82.29;96615.13;6369835;27;20217;-69
2021/12/08 09:14:20;;;;;;;22.50;14.57;;;;;;;-0.90;81.53;96607.25;6369129;27;20256;-69
2021/12/08 09:17:39;;;;;;;19.77;13.10;;;;;;;-0.67;80.84;96600.84;6369634;27;20187;-69
2021/12/08 09:20:55;;;;;;;21.83;12.67;;;;;;;-0.59;79.88;96593.50;6350855;27;20704;-70
2021/12/08 09:24:10;;;;;;;20.97;12.87;;;;;;;-0.55;78.18;96585.50;6369589;27;20181;-68
2021/12/08 09:27:24;;;;;;;18.30;11.53;;;;;;;-0.33;78.06;96579.16;6326168;28;20642;-68
2021/12/08 09:30:33;;;;;;;19.93;12.13;;;;;;;-0.19;77.20;96576.63;6369144;27;20196;-68
2021/12/08 09:33:42;;;;;;;16.77;12.40;;;;;;;0.00;78.19;96574.72;6368596;27;20196;-68
2021/12/08 09:36:48;;;;;;;14.87;11.20;;;;;;;0.35;78.38;96585.66;6351060;27;20275;-70
2021/12/08 09:40:00;;;;;;;18.10;11.13;;;;;;;0.41;77.33;96577.50;6360714;27;20189;-68
2021/12/08 09:43:18;;;;;;;18.13;12.07;;;;;;;0.34;76.78;96569.25;6368877;27;20211;-68
2021/12/08 09:46:25;;;;;;;18.67;11.43;;;;;;;0.38;75.99;96559.53;6369276;27;20193;-69
2021/12/08 09:49:33;;;;;;;14.33;11.13;;;;;;;0.54;76.39;96546.50;6369081;27;20200;-69
2021/12/08 09:52:36;;;;;;;15.40;10.67;;;;;;;0.79;76.40;96548.50;6368417;27;20191;-69
2021/12/08 09:55:38;;;;;;;15.70;10.43;;;;;;;1.02;75.00;96553.13;6350652;27;20303;-74
2021/12/08 09:58:40;;;;;;;16.70;10.63;;;;;;;1.19;74.68;96541.72;6368662;27;20184;-68
2021/12/08 10:01:43;;;;;;;14.40;10.23;;;;;;;0.93;73.78;96549.31;6368347;27;20196;-69
2021/12/08 10:04:46;;;;;;;12.73;9.53;;;;;;;0.85;72.76;96538.56;6368530;27;20296;-68
2021/12/08 10:07:48;;;;;;;12.70;9.30;;;;;;;1.06;73.60;96536.44;6358476;27;20208;-68
2021/12/08 10:10:50;;;;;;;12.57;9.30;;;;;;;1.44;73.89;96534.06;6358087;28;20313;-69
2021/12/08 10:13:53;;;;;;;11.83;8.73;;;;;;;1.41;70.74;96529.88;6349874;28;20224;-70
2021/12/08 10:16:55;;;;;;;12.27;8.40;;;;;;;1.63;71.48;96518.16;6350295;28;20197;-69
2021/12/08 10:20:17;;;;;;;12.70;8.90;;;;;;;1.82;71.09;96518.63;6368095;28;20192;-69
2021/12/08 10:23:35;;;;;;;10.50;7.17;;;;;;;1.82;68.92;96516.03;6368048;28;20246;-70
2021/12/08 10:26:38;;;;;;;9.67;7.97;;;;;;;1.82;69.61;96501.28;6368420;28;20338;-69
2021/12/08 10:29:40;;;;;;;12.37;8.23;;;;;;;1.88;69.88;96510.47;6368493;28;20305;-75
2021/12/08 10:32:42;;;;;;;10.60;8.60;;;;;;;2.16;69.35;96507.72;6349951;28;20185;-71
2021/12/08 10:35:59;;;;;;;10.87;7.40;;;;;;;2.37;69.57;96505.47;6349563;28;20208;-69
2021/12/08 10:39:13;;;;;;;11.27;7.97;;;;;;;2.32;67.06;96494.53;6352453;27;20290;-67
2021/12/08 10:42:23;;;;;;;8.87;6.60;;;;;;;2.42;67.68;96487.75;6351725;28;20241;-69
2021/12/08 10:45:30;;;;;;;8.10;6.20;;;;;;;2.62;68.22;96473.41;6367924;28;20221;-69
2021/12/08 10:48:37;;;;;;;8.33;6.43;;;;;;;2.73;67.90;96478.72;6367862;28;20202;-69
2021/12/08 10:55:15;;;;;;;9.87;7.27;;;;;;;2.39;66.64;96472.38;6368083;28;20204;-69
2021/12/08 10:58:24;;;;;;;9.37;6.77;;;;;;;2.30;66.25;96470.34;6367923;28;20185;-69
2021/12/08 11:01:26;;;;;;;9.67;7.30;;;;;;;2.43;66.91;96468.59;6349288;28;20276;-69
2021/12/08 11:04:31;;;;;;;9.33;7.17;;;;;;;2.41;66.34;96469.63;6368230;27;20212;-69
2021/12/08 11:07:34;;;;;;;10.40;7.50;;;;;;;2.22;66.35;96465.66;6378636;27;20200;-69
2021/12/08 11:10:52;;;;;;;9.73;6.57;;;;;;;2.45;66.75;96471.13;6372995;27;20212;-68
2021/12/08 11:13:59;;;;;;;9.57;6.43;;;;;;;2.74;66.05;96456.09;6371962;27;20240;-68
2021/12/08 11:17:01;;;;;;;9.70;6.70;;;;;;;2.86;65.48;96453.50;6372528;27;20226;-69
2021/12/08 11:20:15;;;;;;;8.77;6.50;;;;;;;2.93;64.25;96454.72;6353896;27;20255;-68
2021/12/08 11:24:02;;;;;;;9.50;6.70;;;;;;;3.19;64.53;96446.88;6353849;27;20196;-70
2021/12/08 11:26:56;;;;;;;10.83;6.93;;;;;;;3.06;62.16;96454.72;6368396;27;20200;-68
2021/12/08 11:29:58;;;;;;;11.73;6.40;;;;;;;3.06;63.32;96453.88;6371752;27;20197;-70
2021/12/08 11:33:23;;;;;;;8.60;6.60;;;;;;;3.12;62.96;96449.06;6372166;27;20194;-66
2021/12/08 11:36:28;;;;;;;10.60;7.60;;;;;;;2.96;63.45;96454.53;6371905;27;20201;-69
2021/12/08 11:39:39;;;;;;;9.07;6.73;;;;;;;2.92;63.86;96449.63;6387064;27;20194;-69
2021/12/08 11:42:41;;;;;;;10.17;7.13;;;;;;;3.04;64.16;96445.31;6351682;27;20188;-69
2021/12/08 11:45:43;;;;;;;10.20;7.33;;;;;;;3.05;63.76;96437.41;6371958;27;20193;-68
2021/12/08 11:49:04;;;;;;;9.03;6.90;;;;;;;2.95;64.66;96431.19;6371774;27;20688;-70
2021/12/08 11:52:13;;;;;;;8.47;6.33;;;;;;;2.93;64.68;96431.28;6371542;27;20177;-69
2021/12/08 11:55:19;;;;;;;8.50;6.03;;;;;;;3.09;64.35;96412.81;6371398;27;20211;-69
2021/12/08 11:58:21;;;;;;;8.97;5.93;;;;;;;3.07;63.31;96419.06;6371505;27;20181;-71
2021/12/08 12:01:24;;;;;;;6.60;4.63;;;;;;;3.05;62.16;96419.16;6370727;27;20194;-69
2021/12/08 12:04:26;;;;;;;5.80;4.20;;;;;;;2.88;61.62;96414.31;6352860;27;20291;-71
2021/12/08 12:07:28;;;;;;;7.00;4.27;;;;;;;2.82;61.02;96414.72;6376630;27;20191;-67
2021/12/08 12:10:33;;;;;;;6.40;4.70;;;;;;;2.77;61.27;96407.25;6388975;27;20228;-68
2021/12/08 12:13:35;;;;;;;5.93;4.57;;;;;;;2.81;61.25;96406.06;6365642;27;20309;-70
2021/12/08 12:16:38;;;;;;;6.60;4.67;;;;;;;2.78;62.17;96405.47;6327313;27;20196;-68
2021/12/08 12:19:47;;;;;;;6.63;4.23;;;;;;;2.74;62.96;96412.66;6352406;27;20260;-70
2021/12/08 12:23:00;;;;;;;6.63;4.17;;;;;;;2.59;62.77;96417.16;6370910;27;20189;-68
2021/12/08 12:26:23;;;;;;;5.90;4.40;;;;;;;2.49;63.51;96410.09;6370426;27;20189;-68
2021/12/08 12:29:36;;;;;;;6.00;4.50;;;;;;;2.41;63.56;96400.19;6371058;27;20201;-68
2021/12/08 12:32:45;;;;;;;6.00;4.10;;;;;;;2.30;62.96;96407.88;6352184;27;20683;-70
2021/12/08 12:35:53;;;;;;;6.93;4.83;;;;;;;2.26;63.63;96403.00;6352261;27;20257;-66
2021/12/08 12:39:20;;;;;;;6.67;4.17;;;;;;;2.28;63.92;96404.56;6353529;27;20190;-69
2021/12/08 12:42:24;;;;;;;4.83;3.37;;;;;;;2.17;63.72;96407.06;6351920;27;20193;-70
2021/12/08 12:45:35;;;;;;;5.93;3.67;;;;;;;2.18;64.87;96406.13;6370461;27;20190;-70
2021/12/08 12:48:38;;;;;;;4.20;3.43;;;;;;;2.16;65.22;96395.81;6370152;27;20688;-68
2021/12/08 12:52:08;;;;;;;7.13;3.87;;;;;;;2.18;66.31;96399.16;6351405;27;20200;-68
2021/12/08 12:55:24;;;;;;;6.03;4.03;;;;;;;2.13;66.35;96387.38;6348030;27;20189;-69
2021/12/08 12:59:10;;;;;;;4.87;3.63;;;;;;;2.13;65.98;96390.81;6369871;27;20192;-69
2021/12/08 13:02:33;;;;;;;5.17;3.70;;;;;;;2.17;66.49;96378.44;6241120;28;20302;-69
2021/12/08 13:05:50;;;;;;;5.80;4.13;;;;;;;2.20;65.82;96376.44;6224784;28;20212;-69
2021/12/08 13:08:53;;;;;;;6.40;4.00;;;;;;;2.21;65.32;96377.28;6241146;28;20290;-69
2021/12/08 13:12:09;;;;;;;6.13;3.40;;;;;;;2.22;65.27;96368.53;6207663;28;20212;-70
2021/12/08 13:15:25;;;;;;;5.00;3.43;;;;;;;2.20;64.97;96375.59;6241421;28;20192;-69
2021/12/08 13:18:28;;;;;;;6.70;3.80;;;;;;;2.14;65.05;96374.28;6240632;28;20660;-69
2021/12/08 13:21:47;;;;;;;4.83;3.40;;;;;;;2.06;63.91;96375.72;6208103;28;20204;-69
2021/12/08 13:24:50;;;;;;;4.33;3.53;;;;;;;1.99;64.24;96372.72;6224543;28;20232;-69
2021/12/08 13:28:07;;;;;;;5.87;3.17;;;;;;;1.88;63.62;96369.16;6223476;28;20279;-70
2021/12/08 13:31:19;;;;;;;5.43;3.67;;;;;;;1.77;62.78;96365.50;6224503;28;20212;-68
2021/12/08 13:34:24;;;;;;;4.53;3.43;;;;;;;1.73;63.36;96371.00;6224353;28;20354;-71
2021/12/08 13:37:29;;;;;;;4.10;2.93;;;;;;;1.75;64.48;96366.53;6312572;27;20204;-69
2021/12/08 13:40:44;;;;;;;6.33;3.90;;;;;;;1.71;64.13;96360.69;6382084;27;20730;-69
2021/12/08 13:43:50;;;;;;;5.47;4.27;;;;;;;1.68;64.67;96366.13;6368820;27;20944;-70
2021/12/08 13:46:58;;;;;;;6.03;4.03;;;;;;;1.68;65.27;96354.88;6369036;27;20567;-69
2021/12/08 13:50:09;;;;;;;6.40;4.00;;;;;;;1.69;64.83;96352.19;6368922;27;20217;-69
2021/12/08 13:53:16;;;;;;;6.20;4.30;;;;;;;1.68;64.35;96354.88;6368581;27;20189;-69
2021/12/08 13:56:17;;;;;;;5.10;4.20;;;;;;;1.73;65.11;96358.00;6368362;27;20181;-69
2021/12/08 13:59:47;;;;;;;6.03;4.53;;;;;;;1.62;64.62;96360.47;6368750;27;20181;-68
2021/12/08 14:02:54;;;;;;;6.47;4.07;;;;;;;1.60;64.87;96364.97;6367513;27;20196;-69
2021/12/08 14:06:01;;;;;;;10.43;5.17;;;;;;;1.58;65.25;96364.22;6349810;28;20675;-69
2021/12/08 14:09:14;;;;;;;5.83;4.63;;;;;;;1.55;65.44;96369.63;6387485;27;20203;-70
2021/12/08 14:12:17;;;;;;;6.50;4.80;;;;;;;1.50;65.80;96372.50;6364016;27;20232;-69
2021/12/08 14:15:32;;;;;;;8.17;5.23;;;;;;;1.48;66.39;96379.59;6363731;27;20234;-70
2021/12/08 14:18:44;;;;;;;6.03;4.60;;;;;;;1.44;66.92;96370.31;6367035;27;20182;-69
2021/12/08 14:22:00;;;;;;;6.80;5.17;;;;;;;1.43;66.19;96371.25;6355380;27;20216;-69
2021/12/08 14:25:04;;;;;;;8.07;4.80;;;;;;;1.41;67.11;96378.28;6357153;27;20233;-69
2021/12/08 14:28:40;;;;;;;6.90;5.27;;;;;;;1.37;66.66;96377.69;6327747;27;20191;-72
2021/12/08 14:32:02;;;;;;;8.10;4.90;;;;;;;1.35;67.14;96371.75;6375870;27;20574;-69
2021/12/08 14:35:11;;;;;;;7.83;5.33;;;;;;;1.31;67.62;96385.03;6342815;28;20196;-70
2021/12/08 14:38:13;;;;;;;6.17;5.00;;;;;;;1.30;67.21;96365.19;6350722;28;20594;-68
2021/12/08 14:41:22;;;;;;;7.77;5.40;;;;;;;1.32;67.99;96364.13;6345325;27;20191;-72
2021/12/08 14:44:30;;;;;;;7.73;5.33;;;;;;;1.28;68.21;96357.50;6347994;27;20284;-70
2021/12/08 14:47:36;;;;;;;8.30;5.67;;;;;;;1.26;68.53;96345.53;6350732;27;20637;-69
2021/12/08 14:50:38;;;;;;;7.20;5.67;;;;;;;1.23;68.62;96350.91;6345065;27;20197;-69
2021/12/08 14:53:40;;;;;;;10.93;5.57;;;;;;;1.23;68.71;96350.91;6360098;27;20575;-69
2021/12/08 14:56:57;;;;;;;9.57;5.83;;;;;;;1.23;69.04;96353.50;6379623;27;20665;-69
2021/12/08 15:00:16;;;;;;;8.07;5.73;;;;;;;1.24;69.05;96362.97;6371600;27;20223;-69
2021/12/08 15:03:18;;;;;;;8.67;5.90;;;;;;;1.25;68.50;96368.06;6366260;27;20186;-68
2021/12/08 15:06:22;;;;;;;9.63;6.50;;;;;;;1.26;68.74;96361.94;6347560;27;20189;-72
2021/12/08 15:09:26;;;;;;;7.07;5.70;;;;;;;1.29;68.63;96373.91;6364701;27;20204;-68
2021/12/08 15:12:28;;;;;;;8.83;6.40;;;;;;;1.29;69.07;96377.34;6368072;27;20217;-69